sensor_id;sensor_type;location;lat;lon;timestamp;pressure;altitude;pressure_sealevel;temperature;humidity
47809;BME280;33573;38.790;-77.084;2023-05-11T00:01:25;101756.85;;;22.42;29.80
47809;BME280;33573;38.790;-77.084;2023-05-11T00:03:51;101763.05;;;22.06;30.31
47809;BME280;33573;38.790;-77.084;2023-05-11T00:06:16;101767.81;;;21.99;30.26
47809;BME280;33573;38.790;-77.084;2023-05-11T00:08:41;101766.19;;;22.33;29.87
47809;BME280;33573;38.790;-77.084;2023-05-11T00:11:07;101767.09;;;22.20;29.89
47809;BME280;33573;38.790;-77.084;2023-05-11T00:13:32;101769.96;;;21.89;30.49
47809;BME280;33573;38.790;-77.084;2023-05-11T00:15:58;101769.59;;;22.51;30.22
47809;BME280;33573;38.790;-77.084;2023-05-11T00:18:23;101772.45;;;21.55;30.75
47809;BME280;33573;38.790;-77.084;2023-05-11T00:20:48;101770.15;;;21.51;31.26
47809;BME280;33573;38.790;-77.084;2023-05-11T00:23:14;101772.43;;;20.59;31.92
47809;BME280;33573;38.790;-77.084;2023-05-11T00:25:39;101771.79;;;21.24;31.49
47809;BME280;33573;38.790;-77.084;2023-05-11T00:28:04;101779.98;;;21.43;30.69
47809;BME280;33573;38.790;-77.084;2023-05-11T00:30:30;101786.18;;;21.03;31.72
47809;BME280;33573;38.790;-77.084;2023-05-11T00:32:55;101788.30;;;20.93;31.64
47809;BME280;33573;38.790;-77.084;2023-05-11T00:35:21;101786.07;;;21.08;31.78
47809;BME280;33573;38.790;-77.084;2023-05-11T00:37:46;101789.50;;;20.71;32.02
47809;BME280;33573;38.790;-77.084;2023-05-11T00:40:11;101794.43;;;20.74;31.79
47809;BME280;33573;38.790;-77.084;2023-05-11T00:42:37;101800.31;;;20.65;32.22
47809;BME280;33573;38.790;-77.084;2023-05-11T00:45:02;101808.53;;;20.47;32.22
47809;BME280;33573;38.790;-77.084;2023-05-11T00:47:28;101812.32;;;20.62;32.35
47809;BME280;33573;38.790;-77.084;2023-05-11T00:49:53;101816.45;;;20.46;32.21
47809;BME280;33573;38.790;-77.084;2023-05-11T00:52:19;101824.86;;;20.72;32.27
47809;BME280;33573;38.790;-77.084;2023-05-11T00:54:45;101827.31;;;21.12;31.82
47809;BME280;33573;38.790;-77.084;2023-05-11T00:57:09;101829.55;;;21.25;31.57
47809;BME280;33573;38.790;-77.084;2023-05-11T00:59:35;101836.90;;;21.02;31.87
47809;BME280;33573;38.790;-77.084;2023-05-11T01:02:01;101835.50;;;21.66;31.34
47809;BME280;33573;38.790;-77.084;2023-05-11T01:04:26;101836.92;;;20.44;32.49
47809;BME280;33573;38.790;-77.084;2023-05-11T01:06:57;101841.78;;;21.14;32.12
47809;BME280;33573;38.790;-77.084;2023-05-11T01:09:28;101843.11;;;21.90;31.35
47809;BME280;33573;38.790;-77.084;2023-05-11T01:11:46;101843.37;;;21.20;31.51
47809;BME280;33573;38.790;-77.084;2023-05-11T01:14:12;101851.85;;;21.08;31.98
47809;BME280;33573;38.790;-77.084;2023-05-11T01:16:35;101856.91;;;21.14;31.88
47809;BME280;33573;38.790;-77.084;2023-05-11T01:19:01;101864.55;;;21.31;31.77
47809;BME280;33573;38.790;-77.084;2023-05-11T01:21:24;101861.48;;;21.31;31.73
47809;BME280;33573;38.790;-77.084;2023-05-11T01:26:28;101856.14;;;20.69;32.17
47809;BME280;33573;38.790;-77.084;2023-05-11T01:31:07;101856.10;;;20.77;32.45
47809;BME280;33573;38.790;-77.084;2023-05-11T01:33:32;101858.82;;;20.96;32.16
47809;BME280;33573;38.790;-77.084;2023-05-11T01:36:01;101858.65;;;20.87;32.21
47809;BME280;33573;38.790;-77.084;2023-05-11T01:38:24;101859.97;;;20.70;32.48
47809;BME280;33573;38.790;-77.084;2023-05-11T01:40:51;101859.23;;;20.58;32.59
47809;BME280;33573;38.790;-77.084;2023-05-11T01:43:15;101856.29;;;20.52;32.68
47809;BME280;33573;38.790;-77.084;2023-05-11T01:45:40;101855.64;;;20.43;32.81
47809;BME280;33573;38.790;-77.084;2023-05-11T01:48:05;101854.91;;;20.79;32.49
47809;BME280;33573;38.790;-77.084;2023-05-11T01:50:28;101858.44;;;20.29;32.67
47809;BME280;33573;38.790;-77.084;2023-05-11T01:52:53;101855.89;;;20.57;33.00
47809;BME280;33573;38.790;-77.084;2023-05-11T01:55:21;101854.45;;;21.03;32.42
47809;BME280;33573;38.790;-77.084;2023-05-11T01:57:44;101854.50;;;20.97;32.28
47809;BME280;33573;38.790;-77.084;2023-05-11T02:00:11;101855.21;;;20.71;32.49
47809;BME280;33573;38.790;-77.084;2023-05-11T02:02:36;101863.71;;;21.54;31.71
47809;BME280;33573;38.790;-77.084;2023-05-11T02:05:01;101866.96;;;20.91;32.31
47809;BME280;33573;38.790;-77.084;2023-05-11T02:07:27;101869.20;;;20.53;32.75
47809;BME280;33573;38.790;-77.084;2023-05-11T02:09:52;101875.99;;;20.30;33.06
47809;BME280;33573;38.790;-77.084;2023-05-11T02:12:18;101876.01;;;20.26;33.11
47809;BME280;33573;38.790;-77.084;2023-05-11T02:14:42;101872.83;;;20.15;33.27
47809;BME280;33573;38.790;-77.084;2023-05-11T02:17:08;101870.75;;;20.35;33.21
47809;BME280;33573;38.790;-77.084;2023-05-11T02:19:34;101872.61;;;20.14;33.19
47809;BME280;33573;38.790;-77.084;2023-05-11T02:21:59;101871.62;;;20.13;33.22
47809;BME280;33573;38.790;-77.084;2023-05-11T02:24:24;101875.22;;;20.15;33.28
47809;BME280;33573;38.790;-77.084;2023-05-11T02:26:49;101876.87;;;19.92;33.45
47809;BME280;33573;38.790;-77.084;2023-05-11T02:29:14;101884.06;;;20.01;33.37
47809;BME280;33573;38.790;-77.084;2023-05-11T02:31:42;101885.88;;;20.01;33.40
47809;BME280;33573;38.790;-77.084;2023-05-11T02:34:08;101886.08;;;19.94;33.59
47809;BME280;33573;38.790;-77.084;2023-05-11T02:36:33;101885.59;;;20.03;33.70
47809;BME280;33573;38.790;-77.084;2023-05-11T02:39:01;101889.98;;;19.89;33.50
47809;BME280;33573;38.790;-77.084;2023-05-11T02:41:24;101892.93;;;20.67;33.24
47809;BME280;33573;38.790;-77.084;2023-05-11T02:43:50;101886.72;;;20.75;32.72
47809;BME280;33573;38.790;-77.084;2023-05-11T02:46:14;101882.89;;;20.46;32.76
47809;BME280;33573;38.790;-77.084;2023-05-11T02:48:39;101886.55;;;20.66;32.52
47809;BME280;33573;38.790;-77.084;2023-05-11T02:51:06;101886.75;;;20.70;32.46
47809;BME280;33573;38.790;-77.084;2023-05-11T02:53:30;101888.90;;;20.23;33.09
47809;BME280;33573;38.790;-77.084;2023-05-11T02:55:55;101883.45;;;20.85;32.52
47809;BME280;33573;38.790;-77.084;2023-05-11T02:58:19;101884.58;;;20.85;32.79
47809;BME280;33573;38.790;-77.084;2023-05-11T03:00:45;101888.27;;;20.26;32.81
47809;BME280;33573;38.790;-77.084;2023-05-11T03:03:10;101891.40;;;20.13;33.01
47809;BME280;33573;38.790;-77.084;2023-05-11T03:05:35;101892.21;;;20.30;33.04
47809;BME280;33573;38.790;-77.084;2023-05-11T03:08:01;101899.48;;;20.42;33.23
47809;BME280;33573;38.790;-77.084;2023-05-11T03:10:27;101902.48;;;20.09;33.38
47809;BME280;33573;38.790;-77.084;2023-05-11T03:12:52;101907.73;;;19.86;33.55
47809;BME280;33573;38.790;-77.084;2023-05-11T03:15:17;101909.45;;;20.12;33.49
47809;BME280;33573;38.790;-77.084;2023-05-11T03:17:49;101905.32;;;19.97;33.76
47809;BME280;33573;38.790;-77.084;2023-05-11T03:20:08;101900.80;;;19.64;33.79
47809;BME280;33573;38.790;-77.084;2023-05-11T03:22:33;101900.13;;;19.68;34.03
47809;BME280;33573;38.790;-77.084;2023-05-11T03:24:58;101897.68;;;19.38;34.08
47809;BME280;33573;38.790;-77.084;2023-05-11T03:27:24;101894.59;;;19.34;34.11
47809;BME280;33573;38.790;-77.084;2023-05-11T03:29:49;101890.20;;;19.79;33.97
47809;BME280;33573;38.790;-77.084;2023-05-11T03:32:14;101883.97;;;19.56;34.07
47809;BME280;33573;38.790;-77.084;2023-05-11T03:34:39;101877.05;;;19.57;33.90
47809;BME280;33573;38.790;-77.084;2023-05-11T03:37:06;101871.65;;;19.70;34.01
47809;BME280;33573;38.790;-77.084;2023-05-11T03:39:32;101878.06;;;19.65;33.74
47809;BME280;33573;38.790;-77.084;2023-05-11T03:41:56;101874.35;;;19.45;33.94
47809;BME280;33573;38.790;-77.084;2023-05-11T03:44:22;101864.94;;;19.48;33.88
47809;BME280;33573;38.790;-77.084;2023-05-11T03:46:47;101865.85;;;19.62;33.73
47809;BME280;33573;38.790;-77.084;2023-05-11T03:49:12;101874.71;;;19.72;33.62
47809;BME280;33573;38.790;-77.084;2023-05-11T03:51:38;101878.17;;;20.08;33.23
47809;BME280;33573;38.790;-77.084;2023-05-11T03:54:03;101884.11;;;20.08;33.23
47809;BME280;33573;38.790;-77.084;2023-05-11T03:56:28;101886.84;;;19.82;33.25
47809;BME280;33573;38.790;-77.084;2023-05-11T03:58:54;101889.48;;;20.09;33.15
47809;BME280;33573;38.790;-77.084;2023-05-11T04:01:20;101892.73;;;20.12;33.03
47809;BME280;33573;38.790;-77.084;2023-05-11T04:03:47;101889.44;;;20.02;33.23
47809;BME280;33573;38.790;-77.084;2023-05-11T04:06:10;101888.54;;;19.69;33.35
47809;BME280;33573;38.790;-77.084;2023-05-11T04:08:36;101887.71;;;19.97;33.59
47809;BME280;33573;38.790;-77.084;2023-05-11T04:11:01;101882.87;;;19.66;33.55
47809;BME280;33573;38.790;-77.084;2023-05-11T04:13:26;101876.91;;;19.73;33.66
47809;BME280;33573;38.790;-77.084;2023-05-11T04:15:52;101874.73;;;19.50;33.63
47809;BME280;33573;38.790;-77.084;2023-05-11T04:18:18;101876.93;;;19.48;33.56
47809;BME280;33573;38.790;-77.084;2023-05-11T04:20:43;101878.47;;;19.46;33.87
47809;BME280;33573;38.790;-77.084;2023-05-11T04:23:08;101882.08;;;19.70;33.57
47809;BME280;33573;38.790;-77.084;2023-05-11T04:25:34;101884.75;;;19.69;33.90
47809;BME280;33573;38.790;-77.084;2023-05-11T04:27:59;101887.98;;;19.48;33.83
47809;BME280;33573;38.790;-77.084;2023-05-11T04:30:25;101887.27;;;19.20;33.95
47809;BME280;33573;38.790;-77.084;2023-05-11T04:32:50;101883.17;;;19.02;34.08
47809;BME280;33573;38.790;-77.084;2023-05-11T04:35:16;101875.56;;;19.07;34.00
47809;BME280;33573;38.790;-77.084;2023-05-11T04:37:41;101872.80;;;18.75;34.48
47809;BME280;33573;38.790;-77.084;2023-05-11T04:40:08;101863.07;;;19.16;34.23
47809;BME280;33573;38.790;-77.084;2023-05-11T04:42:32;101866.25;;;19.43;33.86
47809;BME280;33573;38.790;-77.084;2023-05-11T04:44:57;101871.07;;;19.27;33.78
47809;BME280;33573;38.790;-77.084;2023-05-11T04:47:23;101877.58;;;19.49;33.69
47809;BME280;33573;38.790;-77.084;2023-05-11T04:49:48;101880.15;;;19.49;33.78
47809;BME280;33573;38.790;-77.084;2023-05-11T04:52:13;101879.02;;;19.71;33.56
47809;BME280;33573;38.790;-77.084;2023-05-11T04:54:39;101879.13;;;19.81;33.54
47809;BME280;33573;38.790;-77.084;2023-05-11T04:57:04;101879.43;;;19.88;33.36
47809;BME280;33573;38.790;-77.084;2023-05-11T04:59:30;101878.26;;;19.84;33.46
47809;BME280;33573;38.790;-77.084;2023-05-11T05:01:56;101879.66;;;19.77;33.56
47809;BME280;33573;38.790;-77.084;2023-05-11T05:04:21;101874.99;;;19.66;33.59
47809;BME280;33573;38.790;-77.084;2023-05-11T05:06:46;101870.61;;;19.60;33.70
47809;BME280;33573;38.790;-77.084;2023-05-11T05:09:12;101864.16;;;19.33;33.93
47809;BME280;33573;38.790;-77.084;2023-05-11T05:11:37;101859.99;;;19.70;33.71
47809;BME280;33573;38.790;-77.084;2023-05-11T05:14:02;101862.01;;;19.14;34.01
47809;BME280;33573;38.790;-77.084;2023-05-11T05:16:28;101862.71;;;19.15;33.98
47809;BME280;33573;38.790;-77.084;2023-05-11T05:18:53;101862.29;;;19.15;33.92
47809;BME280;33573;38.790;-77.084;2023-05-11T05:21:19;101856.61;;;19.06;34.01
47809;BME280;33573;38.790;-77.084;2023-05-11T05:23:44;101851.92;;;19.22;34.06
47809;BME280;33573;38.790;-77.084;2023-05-11T05:26:10;101852.16;;;19.18;34.06
47809;BME280;33573;38.790;-77.084;2023-05-11T05:28:35;101853.25;;;19.42;33.71
47809;BME280;33573;38.790;-77.084;2023-05-11T05:31:01;101856.74;;;19.58;33.70
47809;BME280;33573;38.790;-77.084;2023-05-11T05:33:26;101858.07;;;19.71;33.69
47809;BME280;33573;38.790;-77.084;2023-05-11T05:35:51;101856.73;;;19.77;33.67
47809;BME280;33573;38.790;-77.084;2023-05-11T05:38:17;101852.72;;;19.71;33.66
47809;BME280;33573;38.790;-77.084;2023-05-11T05:40:42;101848.69;;;19.41;33.82
47809;BME280;33573;38.790;-77.084;2023-05-11T05:43:08;101842.07;;;19.63;33.84
47809;BME280;33573;38.790;-77.084;2023-05-11T05:45:33;101840.36;;;19.54;33.88
47809;BME280;33573;38.790;-77.084;2023-05-11T05:47:59;101835.38;;;19.20;33.93
47809;BME280;33573;38.790;-77.084;2023-05-11T05:50:24;101830.27;;;19.64;33.93
47809;BME280;33573;38.790;-77.084;2023-05-11T05:52:49;101827.91;;;19.45;33.76
47809;BME280;33573;38.790;-77.084;2023-05-11T05:55:15;101823.61;;;18.81;34.28
47809;BME280;33573;38.790;-77.084;2023-05-11T05:57:40;101829.58;;;19.17;34.06
47809;BME280;33573;38.790;-77.084;2023-05-11T06:00:07;101832.57;;;19.06;34.20
47809;BME280;33573;38.790;-77.084;2023-05-11T06:02:31;101836.42;;;18.84;34.47
47809;BME280;33573;38.790;-77.084;2023-05-11T06:04:56;101834.96;;;19.00;34.18
47809;BME280;33573;38.790;-77.084;2023-05-11T06:07:22;101833.91;;;19.38;33.66
47809;BME280;33573;38.790;-77.084;2023-05-11T06:09:47;101837.14;;;19.39;33.64
47809;BME280;33573;38.790;-77.084;2023-05-11T06:12:13;101843.59;;;19.72;33.68
47809;BME280;33573;38.790;-77.084;2023-05-11T06:14:38;101850.95;;;19.28;33.95
47809;BME280;33573;38.790;-77.084;2023-05-11T06:17:04;101850.32;;;19.65;33.54
47809;BME280;33573;38.790;-77.084;2023-05-11T06:19:29;101845.29;;;19.52;33.68
47809;BME280;33573;38.790;-77.084;2023-05-11T06:21:54;101841.54;;;19.35;33.89
47809;BME280;33573;38.790;-77.084;2023-05-11T06:24:20;101841.10;;;19.43;33.83
47809;BME280;33573;38.790;-77.084;2023-05-11T06:26:45;101838.85;;;19.00;33.98
47809;BME280;33573;38.790;-77.084;2023-05-11T06:29:11;101839.96;;;19.06;33.89
47809;BME280;33573;38.790;-77.084;2023-05-11T06:31:36;101838.52;;;18.92;34.27
47809;BME280;33573;38.790;-77.084;2023-05-11T06:34:02;101837.69;;;19.02;34.14
47809;BME280;33573;38.790;-77.084;2023-05-11T06:36:27;101838.36;;;19.02;34.11
47809;BME280;33573;38.790;-77.084;2023-05-11T06:38:52;101841.66;;;18.81;34.41
47809;BME280;33573;38.790;-77.084;2023-05-11T06:41:18;101843.09;;;18.60;34.58
47809;BME280;33573;38.790;-77.084;2023-05-11T06:43:44;101842.94;;;18.99;34.33
47809;BME280;33573;38.790;-77.084;2023-05-11T06:46:09;101836.03;;;19.07;34.23
47809;BME280;33573;38.790;-77.084;2023-05-11T06:48:34;101837.49;;;19.26;33.94
47809;BME280;33573;38.790;-77.084;2023-05-11T06:51:00;101837.41;;;19.49;33.66
47809;BME280;33573;38.790;-77.084;2023-05-11T06:53:25;101839.66;;;18.99;34.08
47809;BME280;33573;38.790;-77.084;2023-05-11T06:55:52;101839.01;;;19.05;34.08
47809;BME280;33573;38.790;-77.084;2023-05-11T06:58:16;101841.80;;;18.96;34.00
47809;BME280;33573;38.790;-77.084;2023-05-11T07:00:41;101844.78;;;19.33;33.84
47809;BME280;33573;38.790;-77.084;2023-05-11T07:03:06;101849.49;;;19.46;33.50
47809;BME280;33573;38.790;-77.084;2023-05-11T07:05:32;101851.69;;;19.24;33.82
47809;BME280;33573;38.790;-77.084;2023-05-11T07:07:58;101847.54;;;19.41;33.94
47809;BME280;33573;38.790;-77.084;2023-05-11T07:10:23;101845.04;;;19.10;33.96
47809;BME280;33573;38.790;-77.084;2023-05-11T07:12:48;101837.75;;;19.28;33.69
47809;BME280;33573;38.790;-77.084;2023-05-11T07:15:13;101841.26;;;19.27;33.98
47809;BME280;33573;38.790;-77.084;2023-05-11T07:17:39;101841.51;;;18.63;34.16
47809;BME280;33573;38.790;-77.084;2023-05-11T07:20:05;101842.79;;;19.00;34.23
47809;BME280;33573;38.790;-77.084;2023-05-11T07:22:30;101843.15;;;18.67;34.32
47809;BME280;33573;38.790;-77.084;2023-05-11T07:24:55;101836.62;;;19.16;33.96
47809;BME280;33573;38.790;-77.084;2023-05-11T07:27:21;101838.09;;;19.27;33.86
47809;BME280;33573;38.790;-77.084;2023-05-11T07:29:46;101839.26;;;18.95;34.29
47809;BME280;33573;38.790;-77.084;2023-05-11T07:32:11;101839.43;;;18.56;34.41
47809;BME280;33573;38.790;-77.084;2023-05-11T07:34:37;101840.43;;;19.45;33.88
47809;BME280;33573;38.790;-77.084;2023-05-11T07:37:02;101846.91;;;19.69;33.65
47809;BME280;33573;38.790;-77.084;2023-05-11T07:39:28;101851.14;;;19.01;33.84
47809;BME280;33573;38.790;-77.084;2023-05-11T07:41:53;101850.92;;;19.28;33.78
47809;BME280;33573;38.790;-77.084;2023-05-11T07:44:19;101851.91;;;19.25;33.82
47809;BME280;33573;38.790;-77.084;2023-05-11T07:46:44;101855.14;;;19.20;33.80
47809;BME280;33573;38.790;-77.084;2023-05-11T07:49:09;101860.90;;;19.03;34.03
47809;BME280;33573;38.790;-77.084;2023-05-11T07:51:35;101858.12;;;19.13;33.90
47809;BME280;33573;38.790;-77.084;2023-05-11T07:54:00;101860.53;;;19.21;34.07
47809;BME280;33573;38.790;-77.084;2023-05-11T07:56:26;101858.42;;;18.82;34.65
47809;BME280;33573;38.790;-77.084;2023-05-11T07:58:51;101854.96;;;18.84;34.48
47809;BME280;33573;38.790;-77.084;2023-05-11T08:01:17;101858.23;;;19.11;34.07
47809;BME280;33573;38.790;-77.084;2023-05-11T08:03:42;101856.11;;;19.35;33.72
47809;BME280;33573;38.790;-77.084;2023-05-11T08:06:08;101857.89;;;18.73;34.21
47809;BME280;33573;38.790;-77.084;2023-05-11T08:08:33;101856.14;;;18.53;34.60
47809;BME280;33573;38.790;-77.084;2023-05-11T08:10:59;101858.28;;;18.76;34.71
47809;BME280;33573;38.790;-77.084;2023-05-11T08:13:24;101855.19;;;18.62;34.55
47809;BME280;33573;38.790;-77.084;2023-05-11T08:15:49;101851.76;;;18.50;34.69
47809;BME280;33573;38.790;-77.084;2023-05-11T08:18:15;101851.05;;;18.78;34.32
47809;BME280;33573;38.790;-77.084;2023-05-11T08:20:40;101854.74;;;18.83;34.26
47809;BME280;33573;38.790;-77.084;2023-05-11T08:23:06;101862.01;;;18.76;34.38
47809;BME280;33573;38.790;-77.084;2023-05-11T08:25:31;101864.79;;;19.16;34.11
47809;BME280;33573;38.790;-77.084;2023-05-11T08:27:57;101862.77;;;19.08;34.21
47809;BME280;33573;38.790;-77.084;2023-05-11T08:30:22;101864.21;;;18.69;34.37
47809;BME280;33573;38.790;-77.084;2023-05-11T08:32:47;101862.26;;;18.92;34.37
47809;BME280;33573;38.790;-77.084;2023-05-11T08:35:13;101859.15;;;18.74;34.52
47809;BME280;33573;38.790;-77.084;2023-05-11T08:37:38;101856.02;;;18.94;34.24
47809;BME280;33573;38.790;-77.084;2023-05-11T08:40:04;101861.30;;;18.95;34.15
47809;BME280;33573;38.790;-77.084;2023-05-11T08:42:31;101862.41;;;18.87;33.95
47809;BME280;33573;38.790;-77.084;2023-05-11T08:44:55;101862.59;;;18.78;34.12
47809;BME280;33573;38.790;-77.084;2023-05-11T08:47:20;101861.78;;;19.09;34.04
47809;BME280;33573;38.790;-77.084;2023-05-11T08:49:46;101864.82;;;18.94;34.25
47809;BME280;33573;38.790;-77.084;2023-05-11T08:52:12;101861.50;;;18.98;34.19
47809;BME280;33573;38.790;-77.084;2023-05-11T08:54:36;101863.43;;;19.03;34.10
47809;BME280;33573;38.790;-77.084;2023-05-11T08:57:02;101866.00;;;18.89;34.22
47809;BME280;33573;38.790;-77.084;2023-05-11T08:59:28;101870.78;;;19.09;34.01
47809;BME280;33573;38.790;-77.084;2023-05-11T09:01:53;101871.44;;;18.87;34.25
47809;BME280;33573;38.790;-77.084;2023-05-11T09:04:19;101873.44;;;18.67;34.18
47809;BME280;33573;38.790;-77.084;2023-05-11T09:06:44;101872.21;;;18.63;34.53
47809;BME280;33573;38.790;-77.084;2023-05-11T09:09:09;101885.05;;;18.80;34.24
47809;BME280;33573;38.790;-77.084;2023-05-11T09:11:35;101887.94;;;18.82;34.18
47809;BME280;33573;38.790;-77.084;2023-05-11T09:14:00;101891.64;;;18.80;34.20
47809;BME280;33573;38.790;-77.084;2023-05-11T09:16:25;101893.56;;;18.89;34.10
47809;BME280;33573;38.790;-77.084;2023-05-11T09:18:52;101893.13;;;18.41;34.44
47809;BME280;33573;38.790;-77.084;2023-05-11T09:21:17;101894.16;;;18.69;34.16
47809;BME280;33573;38.790;-77.084;2023-05-11T09:23:42;101891.94;;;18.79;34.32
47809;BME280;33573;38.790;-77.084;2023-05-11T09:26:13;101893.23;;;18.92;34.15
47809;BME280;33573;38.790;-77.084;2023-05-11T09:28:33;101890.16;;;18.41;34.43
47809;BME280;33573;38.790;-77.084;2023-05-11T09:30:58;101892.48;;;18.76;34.27
47809;BME280;33573;38.790;-77.084;2023-05-11T09:33:24;101895.48;;;18.68;34.36
47809;BME280;33573;38.790;-77.084;2023-05-11T09:35:49;101895.53;;;18.76;34.26
47809;BME280;33573;38.790;-77.084;2023-05-11T09:38:16;101891.91;;;18.62;34.43
47809;BME280;33573;38.790;-77.084;2023-05-11T09:40:41;101893.69;;;18.57;34.42
47809;BME280;33573;38.790;-77.084;2023-05-11T09:43:15;101896.09;;;18.66;34.26
47809;BME280;33573;38.790;-77.084;2023-05-11T09:45:37;101899.72;;;18.58;34.22
47809;BME280;33573;38.790;-77.084;2023-05-11T09:47:56;101900.08;;;18.57;33.93
47809;BME280;33573;38.790;-77.084;2023-05-11T09:50:21;101895.41;;;18.43;34.44
47809;BME280;33573;38.790;-77.084;2023-05-11T09:52:50;101892.56;;;18.39;34.24
47809;BME280;33573;38.790;-77.084;2023-05-11T09:55:12;101898.06;;;18.97;33.68
47809;BME280;33573;38.790;-77.084;2023-05-11T09:57:37;101900.80;;;19.15;33.49
47809;BME280;33573;38.790;-77.084;2023-05-11T10:00:04;101900.77;;;19.23;33.51
47809;BME280;33573;38.790;-77.084;2023-05-11T10:02:30;101901.48;;;19.26;33.45
47809;BME280;33573;38.790;-77.084;2023-05-11T10:04:55;101900.68;;;19.18;33.54
47809;BME280;33573;38.790;-77.084;2023-05-11T10:07:26;101903.10;;;19.61;33.26
47809;BME280;33573;38.790;-77.084;2023-05-11T10:09:45;101905.76;;;19.41;33.45
47809;BME280;33573;38.790;-77.084;2023-05-11T10:12:10;101909.79;;;19.15;33.78
47809;BME280;33573;38.790;-77.084;2023-05-11T10:14:41;101914.83;;;18.92;34.06
47809;BME280;33573;38.790;-77.084;2023-05-11T10:17:02;101916.08;;;18.73;34.32
47809;BME280;33573;38.790;-77.084;2023-05-11T10:19:27;101918.05;;;18.45;34.69
47809;BME280;33573;38.790;-77.084;2023-05-11T10:21:52;101918.67;;;18.40;34.70
47809;BME280;33573;38.790;-77.084;2023-05-11T10:24:18;101920.26;;;18.52;34.67
47809;BME280;33573;38.790;-77.084;2023-05-11T10:26:43;101922.28;;;18.83;34.30
47809;BME280;33573;38.790;-77.084;2023-05-11T10:29:08;101925.61;;;18.67;34.44
47809;BME280;33573;38.790;-77.084;2023-05-11T10:31:34;101926.99;;;19.25;33.72
47809;BME280;33573;38.790;-77.084;2023-05-11T10:34:00;101927.02;;;18.86;33.72
47809;BME280;33573;38.790;-77.084;2023-05-11T10:36:25;101930.40;;;19.10;33.59
47809;BME280;33573;38.790;-77.084;2023-05-11T10:38:50;101929.68;;;18.84;34.16
47809;BME280;33573;38.790;-77.084;2023-05-11T10:41:24;101930.66;;;18.54;34.28
47809;BME280;33573;38.790;-77.084;2023-05-11T10:43:52;101930.86;;;19.05;33.93
47809;BME280;33573;38.790;-77.084;2023-05-11T10:46:15;101930.55;;;19.01;33.97
47809;BME280;33573;38.790;-77.084;2023-05-11T10:48:44;101927.72;;;18.73;34.28
47809;BME280;33573;38.790;-77.084;2023-05-11T10:51:11;101931.89;;;18.75;34.18
47809;BME280;33573;38.790;-77.084;2023-05-11T10:53:35;101937.01;;;18.55;34.42
47809;BME280;33573;38.790;-77.084;2023-05-11T10:56:02;101945.40;;;18.14;35.02
47809;BME280;33573;38.790;-77.084;2023-05-11T10:58:17;101947.31;;;18.20;34.78
47809;BME280;33573;38.790;-77.084;2023-05-11T11:03:09;101953.70;;;18.67;34.51
47809;BME280;33573;38.790;-77.084;2023-05-11T11:05:33;101954.69;;;18.58;34.57
47809;BME280;33573;38.790;-77.084;2023-05-11T11:07:57;101957.93;;;18.91;33.95
47809;BME280;33573;38.790;-77.084;2023-05-11T11:10:31;101961.31;;;19.11;33.94
47809;BME280;33573;38.790;-77.084;2023-05-11T11:15:11;101959.92;;;19.15;33.76
47809;BME280;33573;38.790;-77.084;2023-05-11T11:17:37;101958.92;;;19.11;34.23
47809;BME280;33573;38.790;-77.084;2023-05-11T11:20:03;101956.37;;;18.82;34.16
47809;BME280;33573;38.790;-77.084;2023-05-11T11:22:42;101957.33;;;18.83;34.10
47809;BME280;33573;38.790;-77.084;2023-05-11T11:24:53;101957.67;;;19.08;34.10
47809;BME280;33573;38.790;-77.084;2023-05-11T11:27:19;101956.25;;;18.65;34.62
47809;BME280;33573;38.790;-77.084;2023-05-11T11:32:24;101959.89;;;18.88;34.79
47809;BME280;33573;38.790;-77.084;2023-05-11T11:34:35;101961.44;;;18.28;34.91
47809;BME280;33573;38.790;-77.084;2023-05-11T11:37:07;101958.01;;;18.65;34.80
47809;BME280;33573;38.790;-77.084;2023-05-11T11:39:29;101958.60;;;18.84;34.55
47809;BME280;33573;38.790;-77.084;2023-05-11T11:41:59;101964.40;;;19.19;34.13
47809;BME280;33573;38.790;-77.084;2023-05-11T11:44:20;101968.40;;;19.39;33.84
47809;BME280;33573;38.790;-77.084;2023-05-11T11:46:43;101971.73;;;18.84;34.63
47809;BME280;33573;38.790;-77.084;2023-05-11T11:49:08;101971.82;;;19.44;34.35
47809;BME280;33573;38.790;-77.084;2023-05-11T11:51:34;101977.64;;;19.45;34.46
47809;BME280;33573;38.790;-77.084;2023-05-11T11:53:58;101980.05;;;19.46;34.04
47809;BME280;33573;38.790;-77.084;2023-05-11T11:56:35;101977.12;;;18.84;34.86
47809;BME280;33573;38.790;-77.084;2023-05-11T11:58:58;101980.97;;;19.24;34.31
47809;BME280;33573;38.790;-77.084;2023-05-11T12:01:16;101980.41;;;19.09;34.15
47809;BME280;33573;38.790;-77.084;2023-05-11T12:03:41;101980.36;;;19.43;34.34
47809;BME280;33573;38.790;-77.084;2023-05-11T12:06:07;101980.42;;;19.07;34.47
47809;BME280;33573;38.790;-77.084;2023-05-11T12:08:31;101978.83;;;18.88;34.86
47809;BME280;33573;38.790;-77.084;2023-05-11T12:10:57;101978.64;;;18.97;34.52
47809;BME280;33573;38.790;-77.084;2023-05-11T12:13:23;101974.99;;;18.74;34.94
47809;BME280;33573;38.790;-77.084;2023-05-11T12:15:47;101976.11;;;19.03;34.52
47809;BME280;33573;38.790;-77.084;2023-05-11T12:18:20;101977.19;;;19.30;34.45
47809;BME280;33573;38.790;-77.084;2023-05-11T12:20:38;101978.22;;;18.99;35.01
47809;BME280;33573;38.790;-77.084;2023-05-11T12:23:04;101982.04;;;19.60;34.36
47809;BME280;33573;38.790;-77.084;2023-05-11T12:25:29;101986.86;;;19.59;34.49
47809;BME280;33573;38.790;-77.084;2023-05-11T12:27:55;101988.25;;;19.16;34.46
47809;BME280;33573;38.790;-77.084;2023-05-11T12:30:21;101992.00;;;19.53;34.06
47809;BME280;33573;38.790;-77.084;2023-05-11T12:32:45;101993.37;;;19.69;34.13